createdAt,value
2019-06-26T00:02:28.927Z,5.20
2019-06-26T00:07:32.374Z,3.17
2019-06-26T00:12:35.843Z,3.98
2019-06-26T00:17:39.322Z,3.95
2019-06-26T00:22:42.797Z,6.10
2019-06-26T00:27:46.263Z,3.90
2019-06-26T00:32:49.720Z,3.95
2019-06-26T00:37:53.494Z,4.53
2019-06-26T00:42:56.963Z,4.28
2019-06-26T00:48:00.456Z,4.78
2019-06-26T00:53:05.089Z,4.58
2019-06-26T00:58:08.590Z,4.50
2019-06-26T01:03:12.487Z,4.15
2019-06-26T01:08:15.940Z,5.00
2019-06-26T01:13:19.482Z,4.80
2019-06-26T01:18:22.991Z,4.25
2019-06-26T01:23:26.560Z,4.75
2019-06-26T01:28:30.034Z,4.75
2019-06-26T01:33:33.513Z,4.40
2019-06-26T01:38:37.313Z,5.17
2019-06-26T01:43:40.761Z,4.67
2019-06-26T01:48:44.255Z,4.28
2019-06-26T01:53:48.046Z,4.87
2019-06-26T01:58:51.547Z,5.80
2019-06-26T02:03:54.997Z,4.95
2019-06-26T02:08:58.484Z,5.20
2019-06-26T02:14:03.465Z,4.45
2019-06-26T02:19:08.583Z,5.90
2019-06-26T02:24:12.089Z,5.37
2019-06-26T02:29:15.664Z,5.05
2019-06-26T02:34:19.136Z,5.22
2019-06-26T02:39:22.878Z,5.33
2019-06-26T02:44:26.349Z,5.40
2019-06-26T02:49:31.434Z,4.47
2019-06-26T02:54:34.875Z,9.50
2019-06-26T02:59:38.351Z,5.47
2019-06-26T03:04:41.809Z,5.55
2019-06-26T03:09:45.264Z,5.87
2019-06-26T03:14:48.728Z,6.80
2019-06-26T03:19:52.488Z,5.08
2019-06-26T03:24:55.963Z,6.90
2019-06-26T03:29:59.411Z,6.57
2019-06-26T03:35:02.883Z,5.80
2019-06-26T03:40:07.832Z,6.60
2019-06-26T03:45:24.498Z,6.97
2019-06-26T03:50:17.055Z,6.50
2019-06-26T03:55:20.845Z,6.42
2019-06-26T04:00:39.830Z,6.50
2019-06-26T04:05:43.365Z,7.12
2019-06-26T04:10:46.819Z,7.60
2019-06-26T04:15:51.134Z,6.30
2019-06-26T04:20:54.625Z,7.95
2019-06-26T04:25:59.628Z,13.18
2019-06-26T04:31:03.187Z,5.87
2019-06-26T04:36:06.734Z,7.67
2019-06-26T04:41:10.496Z,7.28
2019-06-26T04:46:13.998Z,7.05
2019-06-26T04:51:17.437Z,6.87
2019-06-26T04:56:20.917Z,7.77
2019-06-26T05:01:24.354Z,7.12
2019-06-26T05:06:27.837Z,9.95
2019-06-26T05:11:31.318Z,13.40
2019-06-26T05:16:34.880Z,7.17
2019-06-26T05:21:38.402Z,11.70
2019-06-26T05:26:41.868Z,7.70
2019-06-26T05:31:45.447Z,8.73
2019-06-26T05:36:48.919Z,7.33
2019-06-26T05:41:52.750Z,7.70
2019-06-26T05:46:56.524Z,8.45
2019-06-26T05:52:02.160Z,7.83
2019-06-26T05:57:05.672Z,8.85
2019-06-26T06:02:09.201Z,7.30
2019-06-26T06:07:12.675Z,6.80
2019-06-26T06:12:16.148Z,8.13
2019-06-26T06:17:19.619Z,7.00
2019-06-26T06:22:23.366Z,7.65
2019-06-26T06:27:26.804Z,7.63
2019-06-26T06:32:30.435Z,8.28
2019-06-26T06:37:33.892Z,8.00
2019-06-26T06:42:37.635Z,15.57
2019-06-26T06:47:41.152Z,16.02
2019-06-26T06:52:44.710Z,19.73
2019-06-26T06:57:48.180Z,38.48
2019-06-26T07:02:51.644Z,38.00
2019-06-26T07:07:55.133Z,39.88
2019-06-26T07:12:58.993Z,35.58
2019-06-26T07:18:02.446Z,39.83
2019-06-26T07:23:06.254Z,51.00
2019-06-26T07:28:09.934Z,39.88
2019-06-26T07:33:13.380Z,37.45
2019-06-26T07:38:16.929Z,35.58
2019-06-26T07:43:20.564Z,40.63
2019-06-26T07:48:24.120Z,33.98
2019-06-26T07:53:27.596Z,32.30
2019-06-26T07:58:31.152Z,41.65
2019-06-26T08:03:34.647Z,33.73
2019-06-26T08:08:38.116Z,34.98
2019-06-26T08:13:41.575Z,35.25
2019-06-26T08:18:45.064Z,40.55
2019-06-26T08:23:48.549Z,33.85
2019-06-26T08:28:52.000Z,37.25
2019-06-26T08:33:55.544Z,23.97
2019-06-26T08:38:59.653Z,31.12
2019-06-26T08:44:03.282Z,24.72
2019-06-26T08:49:21.098Z,26.05
2019-06-26T08:54:11.938Z,23.92
2019-06-26T08:59:15.433Z,26.93
2019-06-26T09:04:18.913Z,32.25
2019-06-26T09:09:22.396Z,32.35
2019-06-26T09:14:25.848Z,46.53
2019-06-26T09:19:29.407Z,33.53
2019-06-26T09:24:32.889Z,36.70
2019-06-26T09:29:36.353Z,28.23
2019-06-26T09:34:39.835Z,30.75
2019-06-26T09:39:43.552Z,30.50
2019-06-26T09:44:47.349Z,33.33
2019-06-26T09:49:50.796Z,33.80
2019-06-26T09:54:54.324Z,31.40
2019-06-26T09:59:57.889Z,32.25
2019-06-26T10:05:01.485Z,29.25
2019-06-26T10:10:06.107Z,32.45
2019-06-26T10:15:10.063Z,36.20
2019-06-26T10:20:14.863Z,35.13
2019-06-26T10:25:18.673Z,40.03
2019-06-26T10:30:22.687Z,34.43
2019-06-26T10:35:26.174Z,34.83
2019-06-26T10:40:29.829Z,36.03
2019-06-26T10:45:36.086Z,33.70
2019-06-26T10:50:48.575Z,78.07
2019-06-26T10:55:44.320Z,141.65
2019-06-26T11:00:47.913Z,117.57
2019-06-26T11:05:51.531Z,95.62
2019-06-26T11:10:55.230Z,98.03
2019-06-26T11:15:58.970Z,75.53
2019-06-26T11:21:02.785Z,69.82
2019-06-26T11:26:06.507Z,61.40
2019-06-26T11:31:10.046Z,43.58
2019-06-26T11:36:13.734Z,37.43
2019-06-26T11:41:17.379Z,35.73
2019-06-26T11:46:21.074Z,30.02
2019-06-26T11:51:24.719Z,30.48
2019-06-26T11:56:28.688Z,31.07
2019-06-26T12:01:32.167Z,28.57
2019-06-26T12:06:35.775Z,25.35
2019-06-26T12:11:39.563Z,25.20
2019-06-26T12:16:43.198Z,26.68
2019-06-26T12:21:46.914Z,22.57
2019-06-26T12:26:50.547Z,23.05
2019-06-26T12:31:54.251Z,23.20
2019-06-26T12:36:57.871Z,25.17
2019-06-26T12:42:01.665Z,21.60
2019-06-26T12:47:05.617Z,21.93
2019-06-26T12:52:09.561Z,21.48
2019-06-26T12:57:13.108Z,21.25
2019-06-26T13:02:16.751Z,19.57
2019-06-26T13:07:20.497Z,20.08
2019-06-26T13:12:24.115Z,23.92
2019-06-26T13:17:27.745Z,18.35
2019-06-26T13:22:31.491Z,17.23
2019-06-26T13:27:35.169Z,18.25
2019-06-26T13:32:38.678Z,18.62
2019-06-26T13:37:42.512Z,23.25
2019-06-26T13:42:46.335Z,20.35
2019-06-26T13:47:50.060Z,23.90
2019-06-26T13:52:53.627Z,18.80
2019-06-26T13:57:57.281Z,16.90
2019-06-26T14:03:01.113Z,16.53
2019-06-26T14:08:04.942Z,15.25
2019-06-26T14:13:08.765Z,19.05
2019-06-26T14:18:12.393Z,15.78
2019-06-26T14:23:15.946Z,31.37
2019-06-26T14:28:19.931Z,18.90
2019-06-26T14:33:23.655Z,17.57
2019-06-26T14:38:27.380Z,19.80
2019-06-26T14:43:30.997Z,19.55
2019-06-26T14:48:34.478Z,20.40
2019-06-26T14:53:38.216Z,19.52
2019-06-26T14:58:41.882Z,19.95
2019-06-26T15:03:45.663Z,20.00
2019-06-26T15:08:49.281Z,18.37
2019-06-26T15:13:52.925Z,18.25
2019-06-26T15:18:56.515Z,18.42
2019-06-26T15:24:00.240Z,16.70
2019-06-26T15:29:04.983Z,16.77
2019-06-26T15:34:08.627Z,20.03
2019-06-26T15:39:12.621Z,17.35
2019-06-26T15:44:16.339Z,17.05
2019-06-26T15:49:19.940Z,17.80
2019-06-26T15:54:23.579Z,24.72
2019-06-26T15:59:30.881Z,17.73
2019-06-26T16:04:35.128Z,15.93
2019-06-26T16:09:38.022Z,16.07
2019-06-26T16:14:41.840Z,16.27
2019-06-26T16:19:45.663Z,14.20
2019-06-26T16:24:49.298Z,14.13
2019-06-26T16:29:52.898Z,12.98
2019-06-26T16:34:57.549Z,11.80
2019-06-26T16:40:01.276Z,11.78
2019-06-26T16:45:06.808Z,11.25
2019-06-26T16:50:10.905Z,11.90
2019-06-26T16:55:14.978Z,13.80
2019-06-26T17:00:19.319Z,44.73
2019-06-26T17:05:23.064Z,14.10
2019-06-26T17:10:26.759Z,11.12
2019-06-26T17:15:30.384Z,9.78
2019-06-26T17:20:33.956Z,14.40
2019-06-26T17:25:37.636Z,8.65
2019-06-26T17:30:41.328Z,11.53
2019-06-26T17:35:45.047Z,9.13
2019-06-26T17:40:48.507Z,8.78
2019-06-26T17:45:52.128Z,11.55
2019-06-26T17:50:55.855Z,10.48
2019-06-26T17:55:59.519Z,9.00
2019-06-26T18:01:03.158Z,10.60
2019-06-26T18:06:07.368Z,8.93
2019-06-26T18:11:10.951Z,9.77
2019-06-26T18:16:14.609Z,9.97
2019-06-26T18:21:18.326Z,13.22
2019-06-26T18:26:22.031Z,7.90
2019-06-26T18:31:25.581Z,14.47
2019-06-26T18:36:33.520Z,8.20
2019-06-26T18:41:36.182Z,8.35
2019-06-26T18:46:39.955Z,7.42
2019-06-26T18:51:43.616Z,8.95
2019-06-26T18:56:47.282Z,5.50
2019-06-26T19:01:50.958Z,5.75
2019-06-26T19:06:54.586Z,6.03
2019-06-26T19:11:58.356Z,6.80
2019-06-26T19:17:02.130Z,5.35
2019-06-26T19:22:06.074Z,7.58
2019-06-26T19:27:09.666Z,4.87
2019-06-26T19:32:13.394Z,6.22
2019-06-26T19:37:17.020Z,18.05
2019-06-26T19:42:20.725Z,7.03
2019-06-26T19:47:24.560Z,5.67
2019-06-26T19:52:31.913Z,7.70
2019-06-26T19:57:35.159Z,3.92
2019-06-26T20:02:38.791Z,4.20
2019-06-26T20:07:42.597Z,6.05
2019-06-26T20:12:46.318Z,8.38
2019-06-26T20:17:49.956Z,16.00
2019-06-26T20:22:53.666Z,3.42
2019-06-26T20:27:57.490Z,3.72
2019-06-26T20:33:01.406Z,4.80
2019-06-26T20:38:06.621Z,4.90
2019-06-26T20:43:10.280Z,12.28
2019-06-26T20:48:13.899Z,14.30
2019-06-26T20:53:17.620Z,7.75
2019-06-26T20:58:21.453Z,7.50
2019-06-26T21:03:25.280Z,5.22
2019-06-26T21:08:29.641Z,3.47
2019-06-26T21:13:33.397Z,4.57
2019-06-26T21:18:37.046Z,4.92
2019-06-26T21:23:42.533Z,4.30
2019-06-26T21:28:46.113Z,4.05
2019-06-26T21:33:49.568Z,4.12
2019-06-26T21:38:53.254Z,6.40
2019-06-26T21:43:56.981Z,12.10
2019-06-26T21:49:00.613Z,2.50
2019-06-26T21:54:05.135Z,2.15
2019-06-26T21:59:08.778Z,3.10
2019-06-26T22:04:12.694Z,2.33
2019-06-26T22:09:17.011Z,3.83
2019-06-26T22:14:20.740Z,4.72
2019-06-26T22:19:24.216Z,6.53
2019-06-26T22:24:28.054Z,4.35
2019-06-26T22:29:31.792Z,3.17
2019-06-26T22:34:35.592Z,3.17
2019-06-26T22:39:39.441Z,4.10
2019-06-26T22:44:43.186Z,2.47
2019-06-26T22:49:46.844Z,3.13
2019-06-26T22:54:50.521Z,3.60
2019-06-26T22:59:54.233Z,7.90
2019-06-26T23:04:58.071Z,5.00
2019-06-26T23:10:01.850Z,3.10
2019-06-26T23:15:08.757Z,3.22
2019-06-26T23:20:13.434Z,7.73
2019-06-26T23:25:17.505Z,1.87
2019-06-26T23:30:21.558Z,2.57
2019-06-26T23:35:25.687Z,2.65
2019-06-26T23:40:29.342Z,2.87
2019-06-26T23:45:32.885Z,1.75
2019-06-26T23:50:36.856Z,1.40
2019-06-26T23:55:40.507Z,2.27
